Time;durP1;ratioP1;P1;durP2;ratioP2;P2;SDS_P1;SDS_P2;PMS_P1;PMS_P2;Temp;Humidity;BMP_temperature;BMP_pressure;BME280_temperature;BME280_humidity;BME280_pressure;Samples;Min_cycle;Max_cycle;Signal;HPM_P1;HPM_P2
2023/08/22 00:00:29;;;;;;;7.55;5.18;;;18.10;99.90;;;;;;5110785;28;20032;-59
2023/08/22 00:02:55;;;;;;;8.32;5.80;;;18.00;99.90;;;;;;5113189;28;20069;-57
2023/08/22 00:05:22;;;;;;;6.68;5.57;;;18.00;99.90;;;;;;5113788;28;20043;-58
2023/08/22 00:07:49;;;;;;;7.55;5.55;;;18.00;99.90;;;;;;5109570;28;20088;-57
2023/08/22 00:10:15;;;;;;;10.13;5.97;;;18.00;99.90;;;;;;5091486;28;20055;-57
2023/08/22 00:12:42;;;;;;;8.85;6.25;;;18.00;99.90;;;;;;5110856;28;20247;-60
2023/08/22 00:15:10;;;;;;;9.73;5.90;;;18.00;99.90;;;;;;5109790;28;20035;-58
2023/08/22 00:17:40;;;;;;;8.07;5.90;;;18.00;99.90;;;;;;5110486;28;20039;-58
2023/08/22 00:20:09;;;;;;;10.32;5.68;;;18.00;99.90;;;;;;5092774;28;20044;-59
2023/08/22 00:22:36;;;;;;;12.43;6.40;;;18.00;99.90;;;;;;5110397;28;20087;-54
2023/08/22 00:25:02;;;;;;;7.72;5.47;;;18.10;99.90;;;;;;5107041;28;20071;-57
2023/08/22 00:27:28;;;;;;;7.00;4.90;;;18.10;99.90;;;;;;5091187;28;20073;-59
2023/08/22 00:29:56;;;;;;;10.95;6.63;;;18.10;99.90;;;;;;5107374;28;20052;-58
2023/08/22 00:32:22;;;;;;;8.07;5.72;;;18.20;99.90;;;;;;5096490;28;20044;-58
2023/08/22 00:34:47;;;;;;;7.00;5.07;;;18.20;99.90;;;;;;5108480;28;20040;-58
2023/08/22 00:37:13;;;;;;;11.73;6.00;;;18.20;99.90;;;;;;5105738;28;20050;-58
2023/08/22 00:39:39;;;;;;;8.00;5.65;;;18.20;99.90;;;;;;5108522;28;20039;-58
2023/08/22 00:42:05;;;;;;;11.27;6.03;;;18.20;99.90;;;;;;5108454;28;20044;-58
2023/08/22 00:44:31;;;;;;;9.35;6.20;;;18.20;99.90;;;;;;5108146;28;20453;-58
2023/08/22 00:46:57;;;;;;;9.68;6.40;;;18.10;99.90;;;;;;5092886;28;20077;-59
2023/08/22 00:49:24;;;;;;;9.63;6.25;;;18.10;99.90;;;;;;5108078;28;20529;-59
2023/08/22 00:51:50;;;;;;;9.60;6.00;;;18.10;99.90;;;;;;5109296;28;20044;-60
2023/08/22 00:54:17;;;;;;;7.60;5.95;;;18.00;99.90;;;;;;5107899;28;20046;-60
2023/08/22 00:56:43;;;;;;;11.68;7.22;;;18.00;99.90;;;;;;5107362;28;20040;-57
2023/08/22 00:59:10;;;;;;;9.63;6.68;;;18.00;99.90;;;;;;5109123;28;20216;-58
2023/08/22 01:01:36;;;;;;;11.98;6.75;;;18.00;99.90;;;;;;5070149;28;20054;-58
2023/08/22 01:04:02;;;;;;;8.90;6.20;;;18.00;99.90;;;;;;5108050;28;20126;-60
2023/08/22 01:06:52;;;;;;;9.85;7.85;;;17.90;99.90;;;;;;5106798;28;20047;-57
2023/08/22 01:09:42;;;;;;;9.65;6.45;;;17.90;99.90;;;;;;5103003;28;20028;-59
2023/08/22 01:12:12;;;;;;;12.13;6.85;;;17.90;99.90;;;;;;5105984;28;20091;-59
2023/08/22 01:14:44;;;;;;;8.70;6.00;;;17.90;99.90;;;;;;5110200;28;20350;-56
2023/08/22 01:17:15;;;;;;;6.78;5.65;;;17.90;99.90;;;;;;5098868;28;20115;-54
2023/08/22 01:19:41;;;;;;;7.57;5.75;;;17.80;99.90;;;;;;5110840;28;20089;-56
2023/08/22 01:22:06;;;;;;;7.82;5.38;;;17.80;99.90;;;;;;5108887;28;20657;-56
2023/08/22 01:24:32;;;;;;;10.48;6.22;;;17.80;99.90;;;;;;5107399;28;20035;-58
2023/08/22 01:26:58;;;;;;;12.60;7.45;;;17.80;99.90;;;;;;5109847;28;20040;-56
2023/08/22 01:29:51;;;;;;;10.70;7.10;;;17.80;99.90;;;;;;5110833;28;20046;-56
2023/08/22 01:32:23;;;;;;;;;;;17.80;99.90;;;;;;5114220;28;20652;-59
2023/08/22 01:34:54;;;;;;;9.07;6.32;;;17.80;99.90;;;;;;5110388;28;19924;-57
2023/08/22 01:37:23;;;;;;;10.07;7.38;;;17.70;99.90;;;;;;5109845;28;20135;-57
2023/08/22 01:39:55;;;;;;;12.20;7.72;;;17.70;99.90;;;;;;5108538;28;20035;-60
2023/08/22 01:42:22;;;;;;;11.55;7.35;;;17.80;99.90;;;;;;5111635;28;20039;-59
2023/08/22 01:44:48;;;;;;;13.07;9.27;;;17.70;99.90;;;;;;5109822;28;20086;-57
2023/08/22 01:47:14;;;;;;;13.93;8.98;;;17.80;99.90;;;;;;5112201;28;20036;-58
2023/08/22 01:49:40;;;;;;;10.38;7.78;;;17.80;99.90;;;;;;5112646;28;20124;-55
2023/08/22 01:52:05;;;;;;;16.58;8.50;;;17.80;99.90;;;;;;5111382;28;20043;-60
2023/08/22 01:54:32;;;;;;;14.02;8.35;;;17.70;99.90;;;;;;5112940;28;20038;-58
2023/08/22 01:56:58;;;;;;;12.18;8.32;;;17.80;99.90;;;;;;5111779;28;20050;-55
2023/08/22 01:59:24;;;;;;;13.27;8.07;;;17.70;99.90;;;;;;5112430;28;20031;-56
2023/08/22 02:01:49;;;;;;;15.13;9.07;;;17.70;99.90;;;;;;5110786;28;20947;-57
2023/08/22 02:04:15;;;;;;;14.55;9.70;;;17.70;99.90;;;;;;5111627;28;20040;-59
2023/08/22 02:06:41;;;;;;;13.13;9.07;;;17.70;99.90;;;;;;5109413;28;20070;-59
2023/08/22 02:09:06;;;;;;;15.70;8.52;;;17.70;99.90;;;;;;5105641;28;20050;-58
2023/08/22 02:11:32;;;;;;;15.00;9.77;;;17.70;99.90;;;;;;5110511;28;20063;-59
2023/08/22 02:13:59;;;;;;;12.80;8.00;;;17.60;99.90;;;;;;5112478;28;20043;-60
2023/08/22 02:16:25;;;;;;;9.13;6.07;;;17.60;99.90;;;;;;5110201;28;20051;-58
2023/08/22 02:18:50;;;;;;;10.95;6.28;;;17.60;99.90;;;;;;5110702;28;20032;-58
2023/08/22 02:21:17;;;;;;;9.50;6.07;;;17.60;99.90;;;;;;5080168;28;20039;-59
2023/08/22 02:23:42;;;;;;;8.20;5.93;;;17.60;99.90;;;;;;5100062;28;20040;-56
2023/08/22 02:26:08;;;;;;;8.60;6.47;;;17.60;99.90;;;;;;5112001;28;20040;-60
2023/08/22 02:28:34;;;;;;;9.35;6.40;;;17.50;99.90;;;;;;5115881;28;20039;-57
2023/08/22 02:31:00;;;;;;;10.38;7.43;;;17.50;99.90;;;;;;5114870;28;20055;-59
2023/08/22 02:33:26;;;;;;;9.52;5.93;;;17.50;99.90;;;;;;5113579;28;20048;-59
2023/08/22 02:35:52;;;;;;;8.43;5.43;;;17.50;99.90;;;;;;5114747;28;20048;-59
2023/08/22 02:38:17;;;;;;;8.52;6.55;;;17.40;99.90;;;;;;5093326;28;20035;-59
2023/08/22 02:40:43;;;;;;;9.93;6.22;;;17.40;99.90;;;;;;5114493;28;20563;-59
2023/08/22 02:43:09;;;;;;;12.80;7.32;;;17.40;99.90;;;;;;5114091;28;20095;-59
2023/08/22 02:45:34;;;;;;;13.68;6.95;;;17.40;99.90;;;;;;5115093;28;20111;-59
2023/08/22 02:48:00;;;;;;;10.57;7.25;;;17.30;99.90;;;;;;5113185;28;20056;-57
2023/08/22 02:50:26;;;;;;;9.60;7.97;;;17.30;99.90;;;;;;5113894;28;20047;-55
2023/08/22 02:52:52;;;;;;;12.25;8.60;;;17.30;99.90;;;;;;5115295;28;20040;-59
2023/08/22 02:55:18;;;;;;;14.52;8.98;;;17.20;99.90;;;;;;5113745;28;20467;-59
2023/08/22 02:57:44;;;;;;;14.27;9.30;;;17.20;99.90;;;;;;5113258;28;20032;-58
2023/08/22 03:00:11;;;;;;;13.98;9.18;;;17.20;99.90;;;;;;5111355;28;20040;-58
2023/08/22 03:02:37;;;;;;;14.02;9.07;;;17.20;99.90;;;;;;5111412;28;20039;-57
2023/08/22 03:05:07;;;;;;;15.25;9.32;;;17.10;99.90;;;;;;5112078;28;20054;-58
2023/08/22 03:07:32;;;;;;;13.48;8.90;;;17.10;99.90;;;;;;5111804;28;20596;-59
2023/08/22 03:09:58;;;;;;;13.15;9.10;;;17.10;99.90;;;;;;5106865;28;20051;-59
2023/08/22 03:12:24;;;;;;;11.55;9.50;;;17.10;99.90;;;;;;5111378;28;20040;-59
2023/08/22 03:14:49;;;;;;;12.35;9.25;;;17.00;99.90;;;;;;5111811;28;20040;-57
2023/08/22 03:17:15;;;;;;;14.05;9.02;;;17.10;99.90;;;;;;5111628;28;20031;-56
2023/08/22 03:19:41;;;;;;;21.40;9.32;;;17.00;99.90;;;;;;5113393;28;20075;-59
2023/08/22 03:22:07;;;;;;;11.93;8.25;;;16.90;99.90;;;;;;5113597;27;20096;-59
2023/08/22 03:24:32;;;;;;;12.88;8.73;;;16.90;99.90;;;;;;5109536;28;20059;-54
2023/08/22 03:26:58;;;;;;;11.48;8.25;;;17.00;99.90;;;;;;5109974;28;20039;-59
2023/08/22 03:29:24;;;;;;;15.27;8.77;;;16.80;99.90;;;;;;5113210;28;20040;-56
2023/08/22 03:31:49;;;;;;;13.80;8.70;;;16.90;99.90;;;;;;5112316;28;20131;-60
2023/08/22 03:34:15;;;;;;;12.90;9.02;;;16.80;99.90;;;;;;5094819;28;20039;-57
2023/08/22 03:36:41;;;;;;;11.73;8.27;;;16.80;99.90;;;;;;5109779;28;20043;-59
2023/08/22 03:39:07;;;;;;;9.63;7.30;;;16.80;99.90;;;;;;5092880;28;20067;-58
2023/08/22 03:41:33;;;;;;;13.68;8.43;;;16.70;99.90;;;;;;5112719;28;20829;-59
2023/08/22 03:43:58;;;;;;;10.68;7.32;;;16.70;99.90;;;;;;5092418;28;20460;-58
2023/08/22 03:46:24;;;;;;;11.15;8.02;;;16.70;99.90;;;;;;5110546;28;20364;-57
2023/08/22 03:48:50;;;;;;;10.85;7.97;;;16.70;99.90;;;;;;5110494;28;20055;-57
2023/08/22 03:51:15;;;;;;;10.57;7.10;;;16.70;99.90;;;;;;5113006;28;20042;-56
2023/08/22 03:53:41;;;;;;;10.38;7.68;;;16.70;99.90;;;;;;5114547;28;20044;-55
2023/08/22 03:56:07;;;;;;;10.55;8.00;;;16.70;99.90;;;;;;5113904;28;20675;-57
2023/08/22 03:58:33;;;;;;;11.63;7.50;;;16.70;99.90;;;;;;5115614;28;20040;-59
2023/08/22 04:01:05;;;;;;;12.98;8.05;;;16.60;99.90;;;;;;5110620;28;20066;-58
2023/08/22 04:03:31;;;;;;;15.15;7.72;;;16.70;99.90;;;;;;5114514;28;20075;-57
2023/08/22 04:06:03;;;;;;;11.45;7.55;;;16.60;99.90;;;;;;5101174;28;20032;-58
2023/08/22 04:08:29;;;;;;;12.07;8.30;;;16.60;99.90;;;;;;5113014;28;20048;-59
2023/08/22 04:10:55;;;;;;;11.38;7.88;;;16.50;99.90;;;;;;5115958;28;20094;-55
2023/08/22 04:13:21;;;;;;;15.27;9.13;;;16.50;99.90;;;;;;5111320;28;20040;-58
2023/08/22 04:15:47;;;;;;;10.57;6.53;;;16.50;99.90;;;;;;5111977;28;20040;-59
2023/08/22 04:18:13;;;;;;;10.10;6.70;;;16.50;99.90;;;;;;5111015;28;20035;-56
2023/08/22 04:20:39;;;;;;;10.95;7.75;;;16.50;99.90;;;;;;5112086;28;20470;-57
2023/08/22 04:23:05;;;;;;;8.65;6.97;;;16.40;99.90;;;;;;5091501;28;20036;-59
2023/08/22 04:25:31;;;;;;;10.15;7.13;;;16.40;99.90;;;;;;5109641;28;20049;-58
2023/08/22 04:27:56;;;;;;;10.02;7.80;;;16.40;99.90;;;;;;5099039;28;20186;-56
2023/08/22 04:30:22;;;;;;;10.02;7.85;;;16.40;99.90;;;;;;5093456;28;20035;-58
2023/08/22 04:32:48;;;;;;;15.35;8.75;;;16.40;99.90;;;;;;5111463;28;20055;-57
2023/08/22 04:35:14;;;;;;;12.13;8.15;;;16.40;99.90;;;;;;5111010;28;20494;-59
2023/08/22 04:37:39;;;;;;;15.18;8.25;;;16.40;99.90;;;;;;5109014;28;20166;-59
2023/08/22 04:40:05;;;;;;;12.88;8.85;;;16.40;99.90;;;;;;5109157;28;20124;-58
2023/08/22 04:42:31;;;;;;;15.70;8.45;;;16.40;99.90;;;;;;5109110;27;20074;-59
2023/08/22 04:44:57;;;;;;;12.35;8.43;;;16.40;99.90;;;;;;5112542;28;20043;-57
2023/08/22 04:47:22;;;;;;;11.20;7.07;;;16.40;99.90;;;;;;5109889;28;20063;-59
2023/08/22 04:49:48;;;;;;;9.55;6.90;;;16.40;99.90;;;;;;5095238;28;20051;-58
2023/08/22 04:52:14;;;;;;;9.25;6.90;;;16.30;99.90;;;;;;5089484;28;20414;-59
2023/08/22 04:54:40;;;;;;;11.50;6.57;;;16.30;99.90;;;;;;5089427;28;20043;-56
2023/08/22 04:57:07;;;;;;;11.55;7.50;;;16.30;99.90;;;;;;5073525;28;20040;-59
2023/08/22 04:59:33;;;;;;;12.75;7.72;;;16.30;99.90;;;;;;5082850;28;20032;-57
2023/08/22 05:01:58;;;;;;;10.80;7.50;;;16.30;99.90;;;;;;5096737;28;20432;-57
2023/08/22 05:04:24;;;;;;;12.40;8.10;;;16.30;99.90;;;;;;5095768;28;20066;-58
2023/08/22 05:06:50;;;;;;;12.57;8.20;;;16.30;99.90;;;;;;5096714;28;20567;-57
2023/08/22 05:09:16;;;;;;;18.40;9.23;;;16.30;99.90;;;;;;5095862;28;20099;-58
2023/08/22 05:11:42;;;;;;;14.52;8.45;;;16.30;99.90;;;;;;5079793;28;20601;-59
2023/08/22 05:14:09;;;;;;;13.70;9.20;;;16.30;99.90;;;;;;5095955;28;20040;-58
2023/08/22 05:16:35;;;;;;;19.15;9.52;;;16.30;99.90;;;;;;5096093;28;20048;-57
2023/08/22 05:19:01;;;;;;;15.48;8.98;;;16.30;99.90;;;;;;5095899;28;20032;-55
2023/08/22 05:21:27;;;;;;;15.85;9.23;;;16.30;99.90;;;;;;5094159;28;20047;-57
2023/08/22 05:23:52;;;;;;;15.50;9.80;;;16.40;99.90;;;;;;5098674;28;20103;-57
2023/08/22 05:26:18;;;;;;;15.07;9.32;;;16.40;99.90;;;;;;5093549;28;20127;-56
2023/08/22 05:28:45;;;;;;;15.88;9.07;;;16.40;99.90;;;;;;5095172;28;20055;-59
2023/08/22 05:31:22;;;;;;;12.23;8.27;;;16.40;99.90;;;;;;5076630;28;20063;-60
2023/08/22 05:33:48;;;;;;;20.15;8.80;;;16.40;99.90;;;;;;5093587;28;20040;-57
2023/08/22 05:36:14;;;;;;;15.73;9.43;;;16.40;99.90;;;;;;5075992;28;20460;-58
2023/08/22 05:38:39;;;;;;;18.30;9.20;;;16.50;99.90;;;;;;5096213;28;20040;-58
2023/08/22 05:41:05;;;;;;;21.13;9.45;;;16.50;99.90;;;;;;5094474;28;20104;-57
2023/08/22 05:43:31;;;;;;;15.23;9.65;;;16.50;99.90;;;;;;5093715;28;20073;-59
2023/08/22 05:45:57;;;;;;;13.70;9.20;;;16.60;99.90;;;;;;5091602;28;20556;-60
2023/08/22 05:48:23;;;;;;;13.50;9.00;;;16.70;99.90;;;;;;5078786;28;20056;-58
2023/08/22 05:50:50;;;;;;;16.38;9.18;;;16.70;99.90;;;;;;5111061;28;20410;-59
2023/08/22 05:53:16;;;;;;;16.65;9.23;;;16.80;99.90;;;;;;5109701;28;20554;-58
2023/08/22 05:55:42;;;;;;;16.77;8.90;;;16.80;99.90;;;;;;5108825;28;20105;-59
2023/08/22 05:58:08;;;;;;;15.45;8.63;;;16.90;99.90;;;;;;5111357;28;20058;-57
2023/08/22 06:00:34;;;;;;;17.02;9.95;;;17.00;99.90;;;;;;5114337;27;20040;-59
2023/08/22 06:03:00;;;;;;;14.63;9.48;;;17.00;99.90;;;;;;5113997;28;20083;-57
2023/08/22 06:05:26;;;;;;;14.07;9.25;;;17.10;99.90;;;;;;5113220;27;20043;-56
2023/08/22 06:07:53;;;;;;;14.02;8.20;;;17.10;99.90;;;;;;5097393;28;20110;-59
2023/08/22 06:10:18;;;;;;;13.73;8.13;;;17.20;99.90;;;;;;5114674;27;20580;-57
2023/08/22 06:12:44;;;;;;;15.35;8.73;;;17.20;99.90;;;;;;5116298;28;20043;-59
2023/08/22 06:15:10;;;;;;;16.35;9.05;;;17.20;99.90;;;;;;5119154;28;20044;-56
2023/08/22 06:17:37;;;;;;;16.25;9.07;;;17.30;99.90;;;;;;5117415;28;20050;-59
2023/08/22 06:20:04;;;;;;;16.42;8.85;;;17.30;99.90;;;;;;5100734;28;20115;-59
2023/08/22 06:22:29;;;;;;;16.92;8.77;;;17.40;99.90;;;;;;5116414;27;20513;-59
2023/08/22 06:24:55;;;;;;;16.55;8.60;;;17.50;99.90;;;;;;5115753;27;20204;-58
2023/08/22 06:27:21;;;;;;;11.60;8.30;;;17.50;99.90;;;;;;5118762;27;20051;-55
2023/08/22 06:29:46;;;;;;;11.23;8.13;;;17.50;99.90;;;;;;5119829;27;20039;-59
2023/08/22 06:32:15;;;;;;;12.80;7.93;;;17.50;99.90;;;;;;5117676;28;20581;-58
2023/08/22 06:34:41;;;;;;;14.13;8.40;;;17.50;99.90;;;;;;5116424;28;20165;-59
2023/08/22 06:37:07;;;;;;;14.43;8.00;;;17.50;99.90;;;;;;5103110;28;20032;-58
2023/08/22 06:39:33;;;;;;;10.23;8.30;;;17.60;99.90;;;;;;5105432;28;20046;-59
2023/08/22 06:41:59;;;;;;;13.25;8.35;;;17.60;99.90;;;;;;5116467;28;20028;-59
2023/08/22 06:44:24;;;;;;;14.73;8.15;;;17.60;99.90;;;;;;5117004;28;20073;-57
2023/08/22 06:46:50;;;;;;;15.80;8.10;;;17.70;99.90;;;;;;5098802;28;20040;-59
2023/08/22 06:49:16;;;;;;;14.50;8.45;;;17.80;99.90;;;;;;5105167;27;20272;-58
2023/08/22 06:51:41;;;;;;;14.52;8.57;;;17.90;99.90;;;;;;5095429;28;20070;-57
2023/08/22 06:54:07;;;;;;;17.85;8.65;;;18.00;99.90;;;;;;5095918;28;20056;-59
2023/08/22 06:56:33;;;;;;;14.70;8.82;;;18.10;99.90;;;;;;5077926;28;20042;-59
2023/08/22 06:58:59;;;;;;;14.55;8.35;;;18.20;99.90;;;;;;5096103;28;20052;-58
2023/08/22 07:01:25;;;;;;;13.38;7.80;;;18.30;99.90;;;;;;5093885;28;20493;-58
2023/08/22 07:03:50;;;;;;;14.05;8.13;;;18.40;99.90;;;;;;5076673;28;20051;-59
2023/08/22 07:06:16;;;;;;;14.70;7.82;;;18.50;99.90;;;;;;5094423;28;20043;-59
2023/08/22 07:08:42;;;;;;;14.13;8.00;;;18.60;99.90;;;;;;5092791;28;20047;-57
2023/08/22 07:11:08;;;;;;;19.17;8.57;;;18.60;99.90;;;;;;5092392;28;20044;-55
2023/08/22 07:13:35;;;;;;;11.95;7.30;;;18.70;99.90;;;;;;5093604;28;20079;-57
2023/08/22 07:16:01;;;;;;;12.85;7.25;;;18.70;99.90;;;;;;5074448;28;20069;-58
2023/08/22 07:18:28;;;;;;;17.17;7.75;;;18.90;99.90;;;;;;5093577;28;20559;-58
2023/08/22 07:20:54;;;;;;;19.08;8.43;;;18.90;99.90;;;;;;5092806;28;20040;-59
2023/08/22 07:23:20;;;;;;;13.63;7.30;;;19.00;99.90;;;;;;5092291;28;20522;-60
2023/08/22 07:25:50;;;;;;;15.00;7.13;;;19.10;99.90;;;;;;5091111;28;20150;-58
2023/08/22 07:28:16;;;;;;;13.52;7.90;;;19.10;99.90;;;;;;5091196;28;20096;-59
2023/08/22 07:30:46;;;;;;;13.45;7.63;;;19.20;99.90;;;;;;5092510;28;20039;-59
2023/08/22 07:33:12;;;;;;;20.10;7.88;;;19.30;99.90;;;;;;5093101;28;20055;-57
2023/08/22 07:35:38;;;;;;;12.68;7.20;;;19.30;99.90;;;;;;5091258;28;20032;-57
2023/08/22 07:38:04;;;;;;;11.63;7.15;;;19.40;99.90;;;;;;5092775;28;20128;-58
2023/08/22 07:40:31;;;;;;;13.85;7.07;;;19.50;99.90;;;;;;5090199;28;20043;-59
2023/08/22 07:42:59;;;;;;;13.52;7.38;;;19.50;99.90;;;;;;5089630;28;20048;-54
2023/08/22 07:45:25;;;;;;;13.52;6.80;;;19.60;99.90;;;;;;5090056;28;20133;-59
2023/08/22 07:47:51;;;;;;;12.90;6.72;;;19.80;99.90;;;;;;5070460;28;20555;-59
2023/08/22 07:50:17;;;;;;;10.38;6.60;;;19.90;99.90;;;;;;5109745;28;20105;-57
2023/08/22 07:52:43;;;;;;;13.43;6.70;;;20.00;99.90;;;;;;5107282;28;20052;-58
2023/08/22 07:55:09;;;;;;;12.82;6.07;;;20.10;99.90;;;;;;5108841;28;21601;-59
2023/08/22 07:57:35;;;;;;;11.40;6.40;;;20.20;99.90;;;;;;5109906;28;20481;-58
2023/08/22 08:00:00;;;;;;;10.98;5.97;;;20.30;99.90;;;;;;5109165;27;20047;-59
2023/08/22 08:02:27;;;;;;;11.48;6.28;;;20.30;99.90;;;;;;5109850;28;20039;-59
2023/08/22 08:04:55;;;;;;;9.57;5.95;;;20.30;99.90;;;;;;5107600;28;20470;-56
2023/08/22 08:07:20;;;;;;;14.05;6.15;;;20.30;99.90;;;;;;5106990;28;20043;-60
2023/08/22 08:09:46;;;;;;;10.35;5.60;;;20.30;99.90;;;;;;5107585;28;20044;-59
2023/08/22 08:12:12;;;;;;;10.52;5.85;;;20.40;99.90;;;;;;5108561;28;20040;-59
2023/08/22 08:14:37;;;;;;;11.45;5.60;;;20.50;99.90;;;;;;5107814;28;20051;-58
2023/08/22 08:17:03;;;;;;;12.18;5.40;;;20.60;99.90;;;;;;5106849;28;20040;-59
2023/08/22 08:19:29;;;;;;;9.20;5.25;;;20.70;99.90;;;;;;5107005;28;20032;-59
2023/08/22 08:21:55;;;;;;;11.68;5.78;;;20.90;99.90;;;;;;5106511;28;20706;-57
2023/08/22 08:24:21;;;;;;;6.93;4.80;;;21.00;99.90;;;;;;5110002;28;20047;-59
2023/08/22 08:26:46;;;;;;;5.50;4.38;;;21.20;99.90;;;;;;5106632;28;20035;-59
2023/08/22 08:29:12;;;;;;;8.32;4.90;;;21.30;99.90;;;;;;5109409;28;20040;-59
2023/08/22 08:31:38;;;;;;;8.18;4.43;;;21.50;99.90;;;;;;5089501;28;20039;-59
2023/08/22 08:34:03;;;;;;;8.02;4.10;;;21.70;99.90;;;;;;5088964;28;20044;-57
2023/08/22 08:36:29;;;;;;;8.45;3.70;;;21.80;99.90;;;;;;5106615;28;20061;-58
2023/08/22 08:38:55;;;;;;;6.13;3.67;;;22.00;99.90;;;;;;5107263;28;20039;-59
2023/08/22 08:41:22;;;;;;;5.00;3.10;;;22.20;99.90;;;;;;5106872;28;20074;-60
2023/08/22 08:43:49;;;;;;;8.88;2.92;;;22.30;99.90;;;;;;5109096;28;20040;-56
2023/08/22 08:46:15;;;;;;;9.35;2.53;;;22.30;99.90;;;;;;5107344;28;20048;-58
2023/08/22 08:48:42;;;;;;;8.20;2.72;;;22.30;99.90;;;;;;5108727;28;20912;-60
2023/08/22 08:51:09;;;;;;;5.03;2.58;;;22.30;99.90;;;;;;5108702;28;20043;-57
2023/08/22 08:53:37;;;;;;;3.47;2.10;;;22.30;99.90;;;;;;5109081;28;20082;-58
2023/08/22 08:56:04;;;;;;;6.90;2.33;;;22.40;99.90;;;;;;5109024;28;20103;-58
2023/08/22 08:58:30;;;;;;;5.60;2.20;;;22.50;99.90;;;;;;5109150;28;20028;-59
2023/08/22 09:00:59;;;;;;;4.25;2.10;;;22.80;99.90;;;;;;5111004;27;20070;-59
2023/08/22 09:03:25;;;;;;;5.93;2.30;;;23.00;99.90;;;;;;5113703;28;20031;-58
2023/08/22 09:05:50;;;;;;;5.03;3.08;;;23.10;99.90;;;;;;5112263;28;20043;-56
2023/08/22 09:08:18;;;;;;;4.60;3.13;;;23.20;99.90;;;;;;5110226;28;20067;-56
2023/08/22 09:10:50;;;;;;;5.57;2.30;;;23.10;99.90;;;;;;5076776;28;20074;-57
2023/08/22 09:13:16;;;;;;;4.38;2.20;;;23.00;99.90;;;;;;5110223;28;20038;-60
2023/08/22 09:15:42;;;;;;;4.38;2.60;;;23.00;99.90;;;;;;5114295;28;20044;-58
2023/08/22 09:18:13;;;;;;;6.03;2.65;;;22.90;99.90;;;;;;5112097;28;20036;-60
2023/08/22 09:20:45;;;;;;;3.95;2.40;;;23.00;99.90;;;;;;5113464;28;20072;-59
2023/08/22 09:23:27;;;;;;;5.88;2.50;;;23.00;99.90;;;;;;5111338;28;20452;-60
2023/08/22 09:25:54;;;;;;;5.35;2.63;;;23.10;99.90;;;;;;5111066;28;20547;-56
2023/08/22 09:28:19;;;;;;;6.97;2.83;;;23.20;99.90;;;;;;5113539;28;20081;-60
2023/08/22 09:30:49;;;;;;;7.82;2.92;;;23.20;99.90;;;;;;5113941;28;20048;-57
2023/08/22 09:33:16;;;;;;;6.03;2.97;;;23.30;99.90;;;;;;5116809;27;20046;-60
2023/08/22 09:35:42;;;;;;;5.53;2.90;;;23.40;99.90;;;;;;5119299;28;20040;-60
2023/08/22 09:38:10;;;;;;;6.60;2.97;;;23.60;99.90;;;;;;5115382;28;20342;-58
2023/08/22 09:40:48;;;;;;;6.90;2.90;;;23.80;99.90;;;;;;5113398;28;20040;-59
2023/08/22 09:43:14;;;;;;;7.25;2.88;;;23.90;99.90;;;;;;5116148;28;20031;-59
2023/08/22 09:45:42;;;;;;;7.55;2.95;;;24.10;99.90;;;;;;5117542;28;20032;-60
2023/08/22 09:48:13;;;;;;;7.82;3.40;;;24.30;99.90;;;;;;5114460;28;20040;-60
2023/08/22 09:50:42;;;;;;;6.00;3.08;;;24.30;99.90;;;;;;5098126;28;20112;-57
2023/08/22 09:53:11;;;;;;;5.90;3.70;;;24.30;99.90;;;;;;5115842;28;20066;-60
2023/08/22 09:55:37;;;;;;;6.63;3.67;;;24.20;99.90;;;;;;5114831;28;20039;-60
2023/08/22 09:58:05;;;;;;;7.40;3.30;;;24.30;99.90;;;;;;5116298;28;20092;-58
2023/08/22 10:00:32;;;;;;;5.75;3.40;;;24.40;99.90;;;;;;5097133;28;20063;-60
2023/08/22 10:03:02;;;;;;;4.65;3.53;;;24.60;99.90;;;;;;5116827;28;20047;-60
2023/08/22 10:05:27;;;;;;;11.05;3.60;;;24.80;99.90;;;;;;5114866;28;20040;-59
2023/08/22 10:07:53;;;;;;;8.85;4.05;;;25.00;99.90;;;;;;5113748;28;20040;-60
2023/08/22 10:10:19;;;;;;;6.05;3.75;;;25.10;99.90;;;;;;5114813;28;20395;-60
2023/08/22 10:12:45;;;;;;;6.82;3.88;;;25.20;99.90;;;;;;5116756;28;20089;-60
2023/08/22 10:15:15;;;;;;;7.55;4.32;;;25.20;99.90;;;;;;5116022;28;20123;-58
2023/08/22 10:17:40;;;;;;;7.57;4.40;;;25.30;99.90;;;;;;5115433;28;20039;-60
2023/08/22 10:20:07;;;;;;;9.90;3.63;;;25.20;99.90;;;;;;5113683;28;20031;-60
2023/08/22 10:22:33;;;;;;;8.15;3.70;;;25.30;99.90;;;;;;5115396;27;20039;-57
2023/08/22 10:25:17;;;;;;;6.82;3.90;;;25.40;99.90;;;;;;5112846;28;20046;-57
2023/08/22 10:27:47;;;;;;;5.93;3.83;;;25.60;99.90;;;;;;5113369;28;20036;-60
2023/08/22 10:30:13;;;;;;;6.85;3.85;;;25.70;99.90;;;;;;5110672;28;20039;-60
2023/08/22 10:32:39;;;;;;;6.63;3.40;;;25.70;99.90;;;;;;5110380;28;20038;-60
2023/08/22 10:35:20;;;;;;;7.60;4.13;;;25.70;99.90;;;;;;5109589;28;20043;-60
2023/08/22 10:37:47;;;;;;;6.63;3.72;;;25.70;99.90;;;;;;5108702;28;20043;-61
2023/08/22 10:40:30;;;;;;;6.25;3.60;;;25.80;99.90;;;;;;5108551;28;20040;-60
2023/08/22 10:43:11;;;;;;;8.57;3.92;;;26.00;99.90;;;;;;5108346;28;20485;-57
2023/08/22 10:46:03;;;;;;;6.00;3.75;;;26.20;99.90;;;;;;5108772;28;20043;-58
2023/08/22 10:48:28;;;;;;;5.82;3.35;;;26.40;99.90;;;;;;5103217;28;20135;-61
2023/08/22 10:51:07;;;;;;;4.88;3.08;;;26.60;99.50;;;;;;5088430;28;20136;-57
2023/08/22 10:53:43;;;;;;;11.13;3.10;;;26.80;98.70;;;;;;5089818;28;20085;-59
2023/08/22 10:56:23;;;;;;;4.82;3.03;;;26.90;98.00;;;;;;5090900;28;20043;-60
2023/08/22 10:59:03;;;;;;;4.85;2.88;;;27.00;97.70;;;;;;5090080;28;20040;-61
2023/08/22 11:01:29;;;;;;;7.82;3.35;;;27.10;96.90;;;;;;5070420;28;20050;-58
2023/08/22 11:03:55;;;;;;;4.40;2.03;;;27.10;96.80;;;;;;5059001;28;20044;-60
2023/08/22 11:06:23;;;;;;;6.50;2.80;;;27.20;96.30;;;;;;5089712;28;20050;-60
2023/08/22 11:08:49;;;;;;;7.05;2.45;;;27.20;95.80;;;;;;5091728;28;20047;-57
2023/08/22 11:11:16;;;;;;;3.90;2.00;;;27.30;95.00;;;;;;5091386;28;20405;-59
2023/08/22 11:13:43;;;;;;;6.60;2.50;;;27.40;94.30;;;;;;5071610;28;20040;-60
2023/08/22 11:16:12;;;;;;;6.22;3.00;;;27.40;93.70;;;;;;5091485;28;20032;-59
2023/08/22 11:18:40;;;;;;;7.60;2.95;;;27.50;93.60;;;;;;5091722;28;20051;-60
2023/08/22 11:21:06;;;;;;;4.05;1.92;;;27.60;93.60;;;;;;5091814;28;20129;-59
2023/08/22 11:23:33;;;;;;;6.28;2.50;;;27.70;93.90;;;;;;5092547;28;20580;-61
2023/08/22 11:26:02;;;;;;;6.80;2.15;;;27.80;93.30;;;;;;5078288;28;20505;-60
2023/08/22 11:28:35;;;;;;;5.93;2.47;;;27.70;92.50;;;;;;5093135;28;20957;-59
2023/08/22 11:31:02;;;;;;;4.47;1.80;;;27.70;92.00;;;;;;5093134;28;20048;-61
2023/08/22 11:33:57;;;;;;;4.45;1.80;;;27.70;92.60;;;;;;5090739;28;20047;-61
2023/08/22 11:36:23;;;;;;;3.92;1.50;;;27.70;92.20;;;;;;5069250;28;20140;-57
2023/08/22 11:38:49;;;;;;;4.22;1.92;;;27.50;91.40;;;;;;5089935;28;20110;-61
2023/08/22 11:41:15;;;;;;;3.45;2.00;;;27.50;91.40;;;;;;5091646;28;20036;-60
2023/08/22 11:43:50;;;;;;;5.57;1.90;;;27.60;91.50;;;;;;5078708;28;20047;-60
2023/08/22 11:46:19;;;;;;;4.07;1.40;;;27.80;91.10;;;;;;5091768;28;20028;-61
2023/08/22 11:48:45;;;;;;;4.47;1.33;;;27.90;90.00;;;;;;5095055;28;20106;-61
2023/08/22 11:51:21;;;;;;;3.30;1.10;;;28.00;87.80;;;;;;5111679;28;20044;-60
2023/08/22 11:53:48;;;;;;;2.78;1.02;;;28.20;87.80;;;;;;5090847;28;20051;-59
2023/08/22 11:56:15;;;;;;;2.97;1.30;;;28.30;86.50;;;;;;5109156;28;20031;-61
2023/08/22 11:58:51;;;;;;;4.00;1.45;;;28.50;85.20;;;;;;5095600;28;20039;-58
2023/08/22 12:01:19;;;;;;;3.83;1.10;;;28.60;83.90;;;;;;5113771;28;20040;-61
2023/08/22 12:03:45;;;;;;;3.75;1.50;;;28.70;83.70;;;;;;5095171;28;20517;-56
2023/08/22 12:06:12;;;;;;;4.38;1.30;;;28.90;82.40;;;;;;5108467;28;20044;-59
2023/08/22 12:08:38;;;;;;;4.25;1.30;;;29.00;82.40;;;;;;5091760;28;20043;-60
2023/08/22 12:11:03;;;;;;;5.30;1.50;;;29.20;81.70;;;;;;5108521;28;20027;-56
2023/08/22 12:13:29;;;;;;;4.72;1.52;;;29.30;80.60;;;;;;5093654;28;20069;-61
2023/08/22 12:15:55;;;;;;;4.05;1.67;;;29.40;81.80;;;;;;5112591;28;20759;-60
2023/08/22 12:18:34;;;;;;;4.18;1.63;;;29.40;80.80;;;;;;5110358;28;20410;-60
2023/08/22 12:21:00;;;;;;;3.97;1.50;;;29.40;79.70;;;;;;5109600;28;20069;-59
2023/08/22 12:23:26;;;;;;;3.53;1.50;;;29.20;79.10;;;;;;5109506;28;20036;-58
2023/08/22 12:25:52;;;;;;;4.18;1.90;;;29.20;78.60;;;;;;5109473;28;20069;-61
2023/08/22 12:28:17;;;;;;;6.38;1.73;;;29.20;78.00;;;;;;5088966;28;20174;-59
2023/08/22 12:30:43;;;;;;;4.45;2.20;;;29.20;78.40;;;;;;5107127;28;20043;-60
2023/08/22 12:33:09;;;;;;;5.70;2.47;;;29.30;78.40;;;;;;5107738;28;20036;-60
2023/08/22 12:35:38;;;;;;;5.47;2.10;;;29.10;77.90;;;;;;5105244;28;20047;-61
2023/08/22 12:38:04;;;;;;;5.53;2.20;;;28.80;78.10;;;;;;5105518;28;20537;-57
2023/08/22 12:40:30;;;;;;;5.78;2.65;;;28.60;79.20;;;;;;5108968;28;20375;-61